Warrensburg, IL (62573)

7:40 AM CDT on September 30, 2014 (GMT -0500)
Forsyth Pkwy | Change Station
CLOSE
Current Station
Personal Weather Station
Location: Forsyth, IL
Elevation: 669 ft
Nearby Weather Stations

Elev 669 ft 39.93 °N, 88.97 °W | Updated 8 seconds ago

Overcast
Overcast
56.9 °F
Feels Like 56.9 °F
N
3.0
Wind Variable Wind from NE
Gusts 3.0 mph

Today
High -- | Low -- °F
--% Chance of Precip.
Yesterday
High -- | Low -- °F
Precip. -- in
6:51 AM 6:40 PM
Waxing Crescent, 36% visible
Pressure 29.99 in
Visibility 2.5 miles
Clouds Overcast 200 ft
Dew Point 55 °F
Humidity 94%
Rainfall 0.00 in
Snow Depth Not available.
UV 0 out of 12
Pollen 3.60 out of 12
Air Quality Not available.
Flu Activity Not available.
METAR KDEC 301154Z 03010KT 2 1/2SM BR OVC002 14/13 A3000 RMK AO2 SLP155 T01440133 10167 20144 53008

More Conditions Fewer Conditions

Pressure 29.99 in
Visibility 2.5 miles
Clouds Overcast 200 ft
Dew Point 55 °F
Humidity 94%
Rainfall 0.00 in
Snow Depth Not available.
UV 0 out of 12
Pollen 3.60 out of 12
Air Quality Not available.
Flu Activity Not available.
METAR KDEC 301154Z 03010KT 2 1/2SM BR OVC002 14/13 A3000 RMK AO2 SLP155 T01440133 10167 20144 53008

More Conditions Fewer Conditions

10-Day Weather Forecast

Almanac

Astronomy

Sep. 30, 2014 Rise Set
Actual Time 6:51 AM CDT 6:40 PM CDT
Civil Twilight 6:24 AM CDT 7:07 PM CDT
Nautical Twilight 5:53 AM CDT 7:38 PM CDT
Astronomical Twilight 5:21 AM CDT 8:10 PM CDT
Moon 12:59 PM CDT 11:10 PM CDT
Length of Visible Light 12h 42m
Length of Day
11h 48m
Tomorrow will be 2m 37s shorter.
Waxing Crescent, 36% of the Moon is Illuminated
Today
Waxing Crescent
Oct 1
First Quarter
Oct 8
Full
Oct 15
Last Quarter
Oct 23
New

Today's Extremes

State Highs State Lows

Community

WunderPhotos

Upload Photos

1,757,625 photos uploaded!

Nearby

Snow Depth

Station Depth Elevation
No new snow has been reported.

Earthquake Activity

City Distance Mag. Time & Date
No recent earthquake activity has been reported nearby.
Minimum magnitude displayed is 2.5.

Coastal Water Temperatures

Place Temperature
No Stations Reporting

Nearby Weather Stations